sensor_id;sensor_type;location;lat;lon;timestamp;temperature;humidity
52669;DHT22;74205;52.786;6.892;2023-11-19T00:01:54;10.30;100.00
52669;DHT22;74205;52.786;6.892;2023-11-19T00:05:14;10.40;100.00
52669;DHT22;74205;52.786;6.892;2023-11-19T00:08:35;10.40;100.00
52669;DHT22;74205;52.786;6.892;2023-11-19T00:11:55;10.40;100.00
52669;DHT22;74205;52.786;6.892;2023-11-19T00:15:16;10.50;100.00
52669;DHT22;74205;52.786;6.892;2023-11-19T00:18:38;10.50;100.00
52669;DHT22;74205;52.786;6.892;2023-11-19T00:21:59;10.50;100.00
52669;DHT22;74205;52.786;6.892;2023-11-19T00:25:23;10.50;100.00
52669;DHT22;74205;52.786;6.892;2023-11-19T00:28:43;10.50;100.00
52669;DHT22;74205;52.786;6.892;2023-11-19T00:32:04;10.60;100.00
52669;DHT22;74205;52.786;6.892;2023-11-19T00:35:25;10.60;100.00
52669;DHT22;74205;52.786;6.892;2023-11-19T00:38:46;10.60;100.00
52669;DHT22;74205;52.786;6.892;2023-11-19T00:42:07;10.60;100.00
52669;DHT22;74205;52.786;6.892;2023-11-19T00:45:27;10.70;100.00
52669;DHT22;74205;52.786;6.892;2023-11-19T00:48:48;10.80;100.00
52669;DHT22;74205;52.786;6.892;2023-11-19T00:52:09;10.80;100.00
52669;DHT22;74205;52.786;6.892;2023-11-19T00:55:29;10.90;100.00
52669;DHT22;74205;52.786;6.892;2023-11-19T00:58:50;10.90;100.00
52669;DHT22;74205;52.786;6.892;2023-11-19T01:02:10;10.90;100.00
52669;DHT22;74205;52.786;6.892;2023-11-19T01:05:31;11.00;100.00
52669;DHT22;74205;52.786;6.892;2023-11-19T01:08:52;11.00;100.00
52669;DHT22;74205;52.786;6.892;2023-11-19T01:12:13;11.10;100.00
52669;DHT22;74205;52.786;6.892;2023-11-19T01:15:34;11.10;100.00
52669;DHT22;74205;52.786;6.892;2023-11-19T01:18:54;11.10;100.00
52669;DHT22;74205;52.786;6.892;2023-11-19T01:22:16;11.20;100.00
52669;DHT22;74205;52.786;6.892;2023-11-19T01:25:37;11.20;100.00
52669;DHT22;74205;52.786;6.892;2023-11-19T01:28:58;11.20;100.00
52669;DHT22;74205;52.786;6.892;2023-11-19T01:32:19;11.20;100.00
52669;DHT22;74205;52.786;6.892;2023-11-19T01:35:39;11.20;100.00
52669;DHT22;74205;52.786;6.892;2023-11-19T01:39:00;11.20;100.00
52669;DHT22;74205;52.786;6.892;2023-11-19T01:42:20;11.20;100.00
52669;DHT22;74205;52.786;6.892;2023-11-19T01:45:41;11.20;100.00
52669;DHT22;74205;52.786;6.892;2023-11-19T01:49:02;11.20;100.00
52669;DHT22;74205;52.786;6.892;2023-11-19T01:52:23;11.30;100.00
52669;DHT22;74205;52.786;6.892;2023-11-19T01:55:46;11.30;100.00
52669;DHT22;74205;52.786;6.892;2023-11-19T01:59:10;11.30;100.00
52669;DHT22;74205;52.786;6.892;2023-11-19T02:02:33;11.30;100.00
52669;DHT22;74205;52.786;6.892;2023-11-19T02:05:54;11.30;100.00
52669;DHT22;74205;52.786;6.892;2023-11-19T02:09:14;11.40;100.00
52669;DHT22;74205;52.786;6.892;2023-11-19T02:12:35;11.40;100.00
52669;DHT22;74205;52.786;6.892;2023-11-19T02:15:56;11.40;100.00
52669;DHT22;74205;52.786;6.892;2023-11-19T02:19:19;11.40;100.00
52669;DHT22;74205;52.786;6.892;2023-11-19T02:22:40;11.40;100.00
52669;DHT22;74205;52.786;6.892;2023-11-19T02:29:29;11.50;100.00
52669;DHT22;74205;52.786;6.892;2023-11-19T02:32:49;11.50;100.00
52669;DHT22;74205;52.786;6.892;2023-11-19T02:36:10;11.50;100.00
52669;DHT22;74205;52.786;6.892;2023-11-19T02:39:30;11.50;100.00
52669;DHT22;74205;52.786;6.892;2023-11-19T02:42:54;11.50;100.00
52669;DHT22;74205;52.786;6.892;2023-11-19T02:46:15;11.50;100.00
52669;DHT22;74205;52.786;6.892;2023-11-19T02:49:37;11.50;100.00
52669;DHT22;74205;52.786;6.892;2023-11-19T02:52:58;11.50;100.00
52669;DHT22;74205;52.786;6.892;2023-11-19T02:56:18;11.50;100.00
52669;DHT22;74205;52.786;6.892;2023-11-19T02:59:46;11.50;100.00
52669;DHT22;74205;52.786;6.892;2023-11-19T03:03:06;11.50;100.00
52669;DHT22;74205;52.786;6.892;2023-11-19T03:06:38;11.60;100.00
52669;DHT22;74205;52.786;6.892;2023-11-19T03:09:58;11.60;100.00
52669;DHT22;74205;52.786;6.892;2023-11-19T03:13:19;11.70;100.00
52669;DHT22;74205;52.786;6.892;2023-11-19T03:16:39;11.70;100.00
52669;DHT22;74205;52.786;6.892;2023-11-19T03:20:00;11.80;100.00
52669;DHT22;74205;52.786;6.892;2023-11-19T03:23:21;11.80;100.00
52669;DHT22;74205;52.786;6.892;2023-11-19T03:26:48;11.90;100.00
52669;DHT22;74205;52.786;6.892;2023-11-19T03:30:10;11.90;100.00
52669;DHT22;74205;52.786;6.892;2023-11-19T03:33:31;12.00;100.00
52669;DHT22;74205;52.786;6.892;2023-11-19T03:36:51;12.00;100.00
52669;DHT22;74205;52.786;6.892;2023-11-19T03:40:12;12.00;100.00
52669;DHT22;74205;52.786;6.892;2023-11-19T03:43:33;12.00;100.00
52669;DHT22;74205;52.786;6.892;2023-11-19T03:46:53;12.00;100.00
52669;DHT22;74205;52.786;6.892;2023-11-19T03:50:14;12.00;100.00
52669;DHT22;74205;52.786;6.892;2023-11-19T03:53:36;12.00;100.00
52669;DHT22;74205;52.786;6.892;2023-11-19T03:56:56;12.00;100.00
52669;DHT22;74205;52.786;6.892;2023-11-19T04:00:17;12.00;100.00
52669;DHT22;74205;52.786;6.892;2023-11-19T04:03:38;12.00;100.00
52669;DHT22;74205;52.786;6.892;2023-11-19T04:07:00;12.00;100.00
52669;DHT22;74205;52.786;6.892;2023-11-19T04:10:21;11.90;100.00
52669;DHT22;74205;52.786;6.892;2023-11-19T04:13:42;11.90;100.00
52669;DHT22;74205;52.786;6.892;2023-11-19T04:17:04;11.90;100.00
52669;DHT22;74205;52.786;6.892;2023-11-19T04:20:25;11.90;100.00
52669;DHT22;74205;52.786;6.892;2023-11-19T04:23:46;12.00;100.00
52669;DHT22;74205;52.786;6.892;2023-11-19T04:27:06;12.00;100.00
52669;DHT22;74205;52.786;6.892;2023-11-19T04:30:27;11.90;100.00
52669;DHT22;74205;52.786;6.892;2023-11-19T04:33:47;11.90;100.00
52669;DHT22;74205;52.786;6.892;2023-11-19T04:37:08;11.90;100.00
52669;DHT22;74205;52.786;6.892;2023-11-19T04:40:30;11.90;100.00
52669;DHT22;74205;52.786;6.892;2023-11-19T04:43:50;11.90;100.00
52669;DHT22;74205;52.786;6.892;2023-11-19T04:47:11;11.90;100.00
52669;DHT22;74205;52.786;6.892;2023-11-19T04:50:31;11.90;100.00
52669;DHT22;74205;52.786;6.892;2023-11-19T04:53:52;11.90;100.00
52669;DHT22;74205;52.786;6.892;2023-11-19T04:57:12;12.00;100.00
52669;DHT22;74205;52.786;6.892;2023-11-19T05:00:33;12.00;100.00
52669;DHT22;74205;52.786;6.892;2023-11-19T05:03:53;12.00;100.00
52669;DHT22;74205;52.786;6.892;2023-11-19T05:07:14;11.90;100.00
52669;DHT22;74205;52.786;6.892;2023-11-19T05:10:34;12.00;100.00
52669;DHT22;74205;52.786;6.892;2023-11-19T05:13:57;11.90;100.00
52669;DHT22;74205;52.786;6.892;2023-11-19T05:17:18;11.90;100.00
52669;DHT22;74205;52.786;6.892;2023-11-19T05:20:39;11.80;100.00
52669;DHT22;74205;52.786;6.892;2023-11-19T05:23:59;11.80;100.00
52669;DHT22;74205;52.786;6.892;2023-11-19T05:27:20;11.90;100.00
52669;DHT22;74205;52.786;6.892;2023-11-19T05:30:40;11.80;100.00
52669;DHT22;74205;52.786;6.892;2023-11-19T05:34:01;11.80;100.00
52669;DHT22;74205;52.786;6.892;2023-11-19T05:37:21;11.80;100.00
52669;DHT22;74205;52.786;6.892;2023-11-19T05:40:42;11.80;100.00
52669;DHT22;74205;52.786;6.892;2023-11-19T05:44:03;11.80;100.00
52669;DHT22;74205;52.786;6.892;2023-11-19T05:47:24;11.80;100.00
52669;DHT22;74205;52.786;6.892;2023-11-19T05:50:44;11.80;100.00
52669;DHT22;74205;52.786;6.892;2023-11-19T05:54:07;11.80;100.00
52669;DHT22;74205;52.786;6.892;2023-11-19T05:57:27;11.80;100.00
52669;DHT22;74205;52.786;6.892;2023-11-19T06:00:49;11.80;100.00
52669;DHT22;74205;52.786;6.892;2023-11-19T06:04:11;11.80;100.00
52669;DHT22;74205;52.786;6.892;2023-11-19T06:07:32;11.70;99.90
52669;DHT22;74205;52.786;6.892;2023-11-19T06:10:53;11.80;99.70
52669;DHT22;74205;52.786;6.892;2023-11-19T06:14:13;11.80;99.50
52669;DHT22;74205;52.786;6.892;2023-11-19T06:17:34;11.70;99.40
52669;DHT22;74205;52.786;6.892;2023-11-19T06:20:55;11.70;99.20
52669;DHT22;74205;52.786;6.892;2023-11-19T06:24:15;11.80;99.00
52669;DHT22;74205;52.786;6.892;2023-11-19T06:27:36;11.70;99.00
52669;DHT22;74205;52.786;6.892;2023-11-19T06:30:56;11.70;98.70
52669;DHT22;74205;52.786;6.892;2023-11-19T06:34:18;11.70;98.60
52669;DHT22;74205;52.786;6.892;2023-11-19T06:37:39;11.70;98.50
52669;DHT22;74205;52.786;6.892;2023-11-19T06:41:00;11.70;98.60
52669;DHT22;74205;52.786;6.892;2023-11-19T06:44:21;11.70;98.40
52669;DHT22;74205;52.786;6.892;2023-11-19T06:47:42;11.70;98.50
52669;DHT22;74205;52.786;6.892;2023-11-19T06:51:05;11.70;98.30
52669;DHT22;74205;52.786;6.892;2023-11-19T06:54:25;11.60;98.20
52669;DHT22;74205;52.786;6.892;2023-11-19T06:57:46;11.70;98.00
52669;DHT22;74205;52.786;6.892;2023-11-19T07:01:07;11.60;97.70
52669;DHT22;74205;52.786;6.892;2023-11-19T07:04:28;11.60;97.80
52669;DHT22;74205;52.786;6.892;2023-11-19T07:07:48;11.60;97.80
52669;DHT22;74205;52.786;6.892;2023-11-19T07:11:09;11.60;97.70
52669;DHT22;74205;52.786;6.892;2023-11-19T07:14:30;11.50;97.70
52669;DHT22;74205;52.786;6.892;2023-11-19T07:17:51;11.50;97.90
52669;DHT22;74205;52.786;6.892;2023-11-19T07:21:11;11.50;98.20
52669;DHT22;74205;52.786;6.892;2023-11-19T07:24:32;11.40;98.30
52669;DHT22;74205;52.786;6.892;2023-11-19T07:27:53;11.40;98.50
52669;DHT22;74205;52.786;6.892;2023-11-19T07:31:13;11.40;98.60
52669;DHT22;74205;52.786;6.892;2023-11-19T07:34:34;11.40;98.70
52669;DHT22;74205;52.786;6.892;2023-11-19T07:37:54;11.40;98.70
52669;DHT22;74205;52.786;6.892;2023-11-19T07:41:15;11.30;98.60
52669;DHT22;74205;52.786;6.892;2023-11-19T07:44:36;11.30;98.50
52669;DHT22;74205;52.786;6.892;2023-11-19T07:47:57;11.40;98.50
52669;DHT22;74205;52.786;6.892;2023-11-19T07:51:17;11.40;98.30
52669;DHT22;74205;52.786;6.892;2023-11-19T07:54:38;11.40;98.10
52669;DHT22;74205;52.786;6.892;2023-11-19T07:57:58;11.40;98.00
52669;DHT22;74205;52.786;6.892;2023-11-19T08:01:19;11.40;97.80
52669;DHT22;74205;52.786;6.892;2023-11-19T08:04:39;11.40;97.60
52669;DHT22;74205;52.786;6.892;2023-11-19T08:08:05;11.40;97.50
52669;DHT22;74205;52.786;6.892;2023-11-19T08:11:25;11.50;97.20
52669;DHT22;74205;52.786;6.892;2023-11-19T08:14:46;11.40;96.80
52669;DHT22;74205;52.786;6.892;2023-11-19T08:18:06;11.50;96.70
52669;DHT22;74205;52.786;6.892;2023-11-19T08:21:27;11.50;96.40
52669;DHT22;74205;52.786;6.892;2023-11-19T08:24:48;11.50;96.00
52669;DHT22;74205;52.786;6.892;2023-11-19T08:28:09;11.50;96.30
52669;DHT22;74205;52.786;6.892;2023-11-19T08:31:29;11.50;96.50
52669;DHT22;74205;52.786;6.892;2023-11-19T08:34:50;11.40;96.50
52669;DHT22;74205;52.786;6.892;2023-11-19T08:38:11;11.40;96.60
52669;DHT22;74205;52.786;6.892;2023-11-19T08:41:31;11.40;96.60
52669;DHT22;74205;52.786;6.892;2023-11-19T08:44:52;11.40;96.50
52669;DHT22;74205;52.786;6.892;2023-11-19T08:48:14;11.50;96.30
52669;DHT22;74205;52.786;6.892;2023-11-19T08:51:35;11.50;96.20
52669;DHT22;74205;52.786;6.892;2023-11-19T08:54:56;11.50;96.30
52669;DHT22;74205;52.786;6.892;2023-11-19T08:58:16;11.50;96.00
52669;DHT22;74205;52.786;6.892;2023-11-19T09:01:37;11.50;96.00
52669;DHT22;74205;52.786;6.892;2023-11-19T09:04:57;11.50;96.40
52669;DHT22;74205;52.786;6.892;2023-11-19T09:08:18;11.40;96.60
52669;DHT22;74205;52.786;6.892;2023-11-19T09:11:39;11.40;97.00
52669;DHT22;74205;52.786;6.892;2023-11-19T09:15:00;11.30;97.50
52669;DHT22;74205;52.786;6.892;2023-11-19T09:18:21;11.30;97.90
52669;DHT22;74205;52.786;6.892;2023-11-19T09:21:41;11.30;98.10
52669;DHT22;74205;52.786;6.892;2023-11-19T09:25:02;11.20;98.40
52669;DHT22;74205;52.786;6.892;2023-11-19T09:28:22;11.30;98.30
52669;DHT22;74205;52.786;6.892;2023-11-19T09:31:43;11.30;98.40
52669;DHT22;74205;52.786;6.892;2023-11-19T09:35:04;11.30;98.60
52669;DHT22;74205;52.786;6.892;2023-11-19T09:38:25;11.30;98.80
52669;DHT22;74205;52.786;6.892;2023-11-19T09:41:45;11.30;98.90
52669;DHT22;74205;52.786;6.892;2023-11-19T09:45:13;11.20;98.90
52669;DHT22;74205;52.786;6.892;2023-11-19T09:48:35;11.30;99.00
52669;DHT22;74205;52.786;6.892;2023-11-19T09:51:57;11.30;99.00
52669;DHT22;74205;52.786;6.892;2023-11-19T09:55:18;11.30;98.70
52669;DHT22;74205;52.786;6.892;2023-11-19T09:58:39;11.40;98.30
52669;DHT22;74205;52.786;6.892;2023-11-19T10:02:00;11.60;98.20
52669;DHT22;74205;52.786;6.892;2023-11-19T10:05:22;11.80;97.60
52669;DHT22;74205;52.786;6.892;2023-11-19T10:08:45;11.80;97.10
52669;DHT22;74205;52.786;6.892;2023-11-19T10:12:06;11.90;96.80
52669;DHT22;74205;52.786;6.892;2023-11-19T10:15:26;12.00;96.20
52669;DHT22;74205;52.786;6.892;2023-11-19T10:18:50;12.00;95.80
52669;DHT22;74205;52.786;6.892;2023-11-19T10:22:11;11.90;95.90
52669;DHT22;74205;52.786;6.892;2023-11-19T10:25:32;11.90;95.90
52669;DHT22;74205;52.786;6.892;2023-11-19T10:28:55;11.90;95.80
52669;DHT22;74205;52.786;6.892;2023-11-19T10:32:16;11.90;96.00
52669;DHT22;74205;52.786;6.892;2023-11-19T10:35:51;11.80;96.00
52669;DHT22;74205;52.786;6.892;2023-11-19T10:39:14;11.80;96.10
52669;DHT22;74205;52.786;6.892;2023-11-19T10:42:35;11.80;96.20
52669;DHT22;74205;52.786;6.892;2023-11-19T10:46:12;11.70;96.40
52669;DHT22;74205;52.786;6.892;2023-11-19T10:49:33;11.70;96.50
52669;DHT22;74205;52.786;6.892;2023-11-19T10:52:56;11.60;97.20
52669;DHT22;74205;52.786;6.892;2023-11-19T10:56:20;11.60;97.70
52669;DHT22;74205;52.786;6.892;2023-11-19T10:59:45;11.50;98.00
52669;DHT22;74205;52.786;6.892;2023-11-19T11:03:12;11.50;98.30
52669;DHT22;74205;52.786;6.892;2023-11-19T11:06:35;11.50;98.50
52669;DHT22;74205;52.786;6.892;2023-11-19T11:09:56;11.50;98.80
52669;DHT22;74205;52.786;6.892;2023-11-19T11:13:18;11.50;98.70
52669;DHT22;74205;52.786;6.892;2023-11-19T11:16:42;11.60;98.40
52669;DHT22;74205;52.786;6.892;2023-11-19T11:20:04;11.70;98.00
52669;DHT22;74205;52.786;6.892;2023-11-19T11:23:56;11.70;97.60
52669;DHT22;74205;52.786;6.892;2023-11-19T11:31:02;11.80;97.10
52669;DHT22;74205;52.786;6.892;2023-11-19T11:38:14;12.00;96.60
52669;DHT22;74205;52.786;6.892;2023-11-19T11:41:35;11.90;96.90
52669;DHT22;74205;52.786;6.892;2023-11-19T11:45:06;11.80;97.10
52669;DHT22;74205;52.786;6.892;2023-11-19T11:48:32;11.80;97.40
52669;DHT22;74205;52.786;6.892;2023-11-19T11:51:58;11.80;97.20
52669;DHT22;74205;52.786;6.892;2023-11-19T11:55:19;11.90;97.00
52669;DHT22;74205;52.786;6.892;2023-11-19T11:58:42;11.90;96.80
52669;DHT22;74205;52.786;6.892;2023-11-19T12:02:03;11.90;96.80
52669;DHT22;74205;52.786;6.892;2023-11-19T12:05:24;11.90;96.90
52669;DHT22;74205;52.786;6.892;2023-11-19T12:08:44;11.80;96.80
52669;DHT22;74205;52.786;6.892;2023-11-19T12:19:18;11.70;97.20
52669;DHT22;74205;52.786;6.892;2023-11-19T12:22:40;11.60;97.60
52669;DHT22;74205;52.786;6.892;2023-11-19T12:26:01;11.60;98.00
52669;DHT22;74205;52.786;6.892;2023-11-19T12:29:22;11.60;98.40
52669;DHT22;74205;52.786;6.892;2023-11-19T12:32:44;11.60;98.30
52669;DHT22;74205;52.786;6.892;2023-11-19T12:36:05;11.60;98.30
52669;DHT22;74205;52.786;6.892;2023-11-19T12:39:32;11.60;98.40
52669;DHT22;74205;52.786;6.892;2023-11-19T12:42:54;11.60;98.50
52669;DHT22;74205;52.786;6.892;2023-11-19T12:46:22;11.60;98.90
52669;DHT22;74205;52.786;6.892;2023-11-19T12:49:42;11.60;98.90
52669;DHT22;74205;52.786;6.892;2023-11-19T12:53:03;11.70;99.20
52669;DHT22;74205;52.786;6.892;2023-11-19T12:56:24;11.70;99.10
52669;DHT22;74205;52.786;6.892;2023-11-19T12:59:55;11.70;99.10
52669;DHT22;74205;52.786;6.892;2023-11-19T13:03:28;11.80;99.00
52669;DHT22;74205;52.786;6.892;2023-11-19T13:06:49;11.80;99.10
52669;DHT22;74205;52.786;6.892;2023-11-19T13:10:10;11.80;98.90
52669;DHT22;74205;52.786;6.892;2023-11-19T13:13:32;11.90;98.80
52669;DHT22;74205;52.786;6.892;2023-11-19T13:16:52;11.90;98.50
52669;DHT22;74205;52.786;6.892;2023-11-19T13:20:14;11.90;98.50
52669;DHT22;74205;52.786;6.892;2023-11-19T13:23:38;11.90;98.40
52669;DHT22;74205;52.786;6.892;2023-11-19T13:26:58;11.90;98.20
52669;DHT22;74205;52.786;6.892;2023-11-19T13:30:19;11.80;98.50
52669;DHT22;74205;52.786;6.892;2023-11-19T13:33:40;11.80;98.50
52669;DHT22;74205;52.786;6.892;2023-11-19T13:37:00;11.70;98.60
52669;DHT22;74205;52.786;6.892;2023-11-19T13:40:21;11.70;98.50
52669;DHT22;74205;52.786;6.892;2023-11-19T13:43:43;11.70;98.70
52669;DHT22;74205;52.786;6.892;2023-11-19T13:47:04;11.70;98.80
52669;DHT22;74205;52.786;6.892;2023-11-19T13:50:25;11.60;99.00
52669;DHT22;74205;52.786;6.892;2023-11-19T13:53:46;11.60;99.00
52669;DHT22;74205;52.786;6.892;2023-11-19T13:57:06;11.60;98.90
52669;DHT22;74205;52.786;6.892;2023-11-19T14:00:27;11.60;98.80
52669;DHT22;74205;52.786;6.892;2023-11-19T14:03:47;11.60;98.80
52669;DHT22;74205;52.786;6.892;2023-11-19T14:07:08;11.70;98.70
52669;DHT22;74205;52.786;6.892;2023-11-19T14:10:28;11.60;98.40
52669;DHT22;74205;52.786;6.892;2023-11-19T14:13:49;11.60;98.40
52669;DHT22;74205;52.786;6.892;2023-11-19T14:17:10;11.60;98.30
52669;DHT22;74205;52.786;6.892;2023-11-19T14:20:31;11.60;98.30
52669;DHT22;74205;52.786;6.892;2023-11-19T14:23:53;11.50;98.20
52669;DHT22;74205;52.786;6.892;2023-11-19T14:27:13;11.50;98.50
52669;DHT22;74205;52.786;6.892;2023-11-19T14:30:34;11.40;98.60
52669;DHT22;74205;52.786;6.892;2023-11-19T14:33:54;11.40;99.00
52669;DHT22;74205;52.786;6.892;2023-11-19T14:37:15;11.30;99.20
52669;DHT22;74205;52.786;6.892;2023-11-19T14:40:36;11.30;99.40
52669;DHT22;74205;52.786;6.892;2023-11-19T14:43:56;11.30;99.50
52669;DHT22;74205;52.786;6.892;2023-11-19T14:47:17;11.20;99.70
52669;DHT22;74205;52.786;6.892;2023-11-19T14:50:38;11.20;100.00
52669;DHT22;74205;52.786;6.892;2023-11-19T14:53:58;11.20;100.00
52669;DHT22;74205;52.786;6.892;2023-11-19T14:57:19;11.20;100.00
52669;DHT22;74205;52.786;6.892;2023-11-19T15:00:39;11.20;100.00
52669;DHT22;74205;52.786;6.892;2023-11-19T15:04:00;11.20;100.00
52669;DHT22;74205;52.786;6.892;2023-11-19T15:07:20;11.20;100.00
52669;DHT22;74205;52.786;6.892;2023-11-19T15:10:42;11.20;100.00
52669;DHT22;74205;52.786;6.892;2023-11-19T15:14:03;11.20;100.00
52669;DHT22;74205;52.786;6.892;2023-11-19T15:17:26;11.20;100.00
52669;DHT22;74205;52.786;6.892;2023-11-19T15:20:47;11.10;100.00
52669;DHT22;74205;52.786;6.892;2023-11-19T15:24:08;11.20;100.00
52669;DHT22;74205;52.786;6.892;2023-11-19T15:27:29;11.10;100.00
52669;DHT22;74205;52.786;6.892;2023-11-19T15:30:49;11.10;100.00
52669;DHT22;74205;52.786;6.892;2023-11-19T15:34:10;11.10;100.00
52669;DHT22;74205;52.786;6.892;2023-11-19T15:37:31;11.10;100.00
52669;DHT22;74205;52.786;6.892;2023-11-19T15:40:51;11.10;100.00
52669;DHT22;74205;52.786;6.892;2023-11-19T15:44:12;11.10;100.00
52669;DHT22;74205;52.786;6.892;2023-11-19T15:47:35;11.10;100.00
52669;DHT22;74205;52.786;6.892;2023-11-19T15:50:56;11.10;100.00
52669;DHT22;74205;52.786;6.892;2023-11-19T15:54:17;11.10;100.00
52669;DHT22;74205;52.786;6.892;2023-11-19T15:57:38;11.10;100.00
52669;DHT22;74205;52.786;6.892;2023-11-19T16:00:58;11.00;100.00
52669;DHT22;74205;52.786;6.892;2023-11-19T16:04:21;11.00;100.00
52669;DHT22;74205;52.786;6.892;2023-11-19T16:07:41;11.00;100.00
52669;DHT22;74205;52.786;6.892;2023-11-19T16:11:02;11.00;100.00
52669;DHT22;74205;52.786;6.892;2023-11-19T16:14:23;11.00;100.00
52669;DHT22;74205;52.786;6.892;2023-11-19T16:17:44;11.00;100.00
52669;DHT22;74205;52.786;6.892;2023-11-19T16:21:05;11.00;100.00
52669;DHT22;74205;52.786;6.892;2023-11-19T16:24:25;11.00;100.00
52669;DHT22;74205;52.786;6.892;2023-11-19T16:27:46;11.00;100.00
52669;DHT22;74205;52.786;6.892;2023-11-19T16:31:07;11.00;100.00
52669;DHT22;74205;52.786;6.892;2023-11-19T16:34:28;11.00;100.00
52669;DHT22;74205;52.786;6.892;2023-11-19T16:37:48;11.00;100.00
52669;DHT22;74205;52.786;6.892;2023-11-19T16:41:10;11.00;100.00
52669;DHT22;74205;52.786;6.892;2023-11-19T16:44:36;11.00;100.00
52669;DHT22;74205;52.786;6.892;2023-11-19T16:47:57;11.00;100.00
52669;DHT22;74205;52.786;6.892;2023-11-19T16:51:17;11.00;100.00
52669;DHT22;74205;52.786;6.892;2023-11-19T16:54:38;11.00;100.00
52669;DHT22;74205;52.786;6.892;2023-11-19T16:57:58;11.00;100.00
52669;DHT22;74205;52.786;6.892;2023-11-19T17:01:19;11.00;100.00
52669;DHT22;74205;52.786;6.892;2023-11-19T17:04:40;11.00;100.00
52669;DHT22;74205;52.786;6.892;2023-11-19T17:08:01;11.00;100.00
52669;DHT22;74205;52.786;6.892;2023-11-19T17:11:21;11.00;100.00
52669;DHT22;74205;52.786;6.892;2023-11-19T17:14:42;11.00;100.00
52669;DHT22;74205;52.786;6.892;2023-11-19T17:18:03;11.00;100.00
52669;DHT22;74205;52.786;6.892;2023-11-19T17:21:25;11.00;100.00
52669;DHT22;74205;52.786;6.892;2023-11-19T17:24:45;10.90;100.00
52669;DHT22;74205;52.786;6.892;2023-11-19T17:28:06;11.00;100.00
52669;DHT22;74205;52.786;6.892;2023-11-19T17:31:32;11.00;100.00
52669;DHT22;74205;52.786;6.892;2023-11-19T17:34:53;11.00;100.00
52669;DHT22;74205;52.786;6.892;2023-11-19T17:38:16;11.00;100.00
52669;DHT22;74205;52.786;6.892;2023-11-19T17:41:37;11.00;100.00
52669;DHT22;74205;52.786;6.892;2023-11-19T17:44:58;11.00;100.00
52669;DHT22;74205;52.786;6.892;2023-11-19T17:48:20;11.00;100.00
52669;DHT22;74205;52.786;6.892;2023-11-19T17:51:41;11.00;100.00
52669;DHT22;74205;52.786;6.892;2023-11-19T17:55:03;10.90;100.00
52669;DHT22;74205;52.786;6.892;2023-11-19T17:58:24;10.90;100.00
52669;DHT22;74205;52.786;6.892;2023-11-19T18:01:45;10.90;100.00
52669;DHT22;74205;52.786;6.892;2023-11-19T18:05:06;10.90;100.00
52669;DHT22;74205;52.786;6.892;2023-11-19T18:08:27;10.90;100.00
52669;DHT22;74205;52.786;6.892;2023-11-19T18:11:47;10.90;100.00
52669;DHT22;74205;52.786;6.892;2023-11-19T18:15:10;10.90;100.00
52669;DHT22;74205;52.786;6.892;2023-11-19T18:18:34;10.90;100.00
52669;DHT22;74205;52.786;6.892;2023-11-19T18:21:55;10.90;100.00
52669;DHT22;74205;52.786;6.892;2023-11-19T18:25:15;10.90;100.00
52669;DHT22;74205;52.786;6.892;2023-11-19T18:28:37;10.90;100.00
52669;DHT22;74205;52.786;6.892;2023-11-19T18:31:59;10.90;100.00
52669;DHT22;74205;52.786;6.892;2023-11-19T18:35:19;10.90;100.00
52669;DHT22;74205;52.786;6.892;2023-11-19T18:38:43;11.00;100.00
52669;DHT22;74205;52.786;6.892;2023-11-19T18:42:04;11.00;100.00
52669;DHT22;74205;52.786;6.892;2023-11-19T18:45:25;11.00;100.00
52669;DHT22;74205;52.786;6.892;2023-11-19T18:48:46;11.00;100.00
52669;DHT22;74205;52.786;6.892;2023-11-19T18:52:06;11.00;100.00
52669;DHT22;74205;52.786;6.892;2023-11-19T18:55:27;11.00;100.00
52669;DHT22;74205;52.786;6.892;2023-11-19T18:58:49;10.90;100.00
52669;DHT22;74205;52.786;6.892;2023-11-19T19:02:10;11.00;100.00
52669;DHT22;74205;52.786;6.892;2023-11-19T19:05:30;10.90;100.00
52669;DHT22;74205;52.786;6.892;2023-11-19T19:08:51;10.90;100.00
52669;DHT22;74205;52.786;6.892;2023-11-19T19:12:12;11.00;100.00
52669;DHT22;74205;52.786;6.892;2023-11-19T19:15:32;11.00;100.00
52669;DHT22;74205;52.786;6.892;2023-11-19T19:18:53;11.00;100.00
52669;DHT22;74205;52.786;6.892;2023-11-19T19:22:15;11.00;100.00
52669;DHT22;74205;52.786;6.892;2023-11-19T19:25:36;11.00;100.00
52669;DHT22;74205;52.786;6.892;2023-11-19T19:28:56;11.00;100.00
52669;DHT22;74205;52.786;6.892;2023-11-19T19:32:17;11.00;100.00
52669;DHT22;74205;52.786;6.892;2023-11-19T19:35:38;11.00;100.00
52669;DHT22;74205;52.786;6.892;2023-11-19T19:38:59;11.00;100.00
52669;DHT22;74205;52.786;6.892;2023-11-19T19:42:20;11.00;100.00
52669;DHT22;74205;52.786;6.892;2023-11-19T19:45:43;11.00;100.00
52669;DHT22;74205;52.786;6.892;2023-11-19T19:49:03;11.00;100.00
52669;DHT22;74205;52.786;6.892;2023-11-19T19:52:25;11.00;100.00
52669;DHT22;74205;52.786;6.892;2023-11-19T19:55:46;11.00;100.00
52669;DHT22;74205;52.786;6.892;2023-11-19T19:59:06;11.00;100.00
52669;DHT22;74205;52.786;6.892;2023-11-19T20:02:28;11.00;100.00
52669;DHT22;74205;52.786;6.892;2023-11-19T20:05:49;11.00;100.00
52669;DHT22;74205;52.786;6.892;2023-11-19T20:09:10;11.00;100.00
52669;DHT22;74205;52.786;6.892;2023-11-19T20:12:34;11.00;100.00
52669;DHT22;74205;52.786;6.892;2023-11-19T20:15:54;11.00;100.00
52669;DHT22;74205;52.786;6.892;2023-11-19T20:19:15;11.00;100.00
52669;DHT22;74205;52.786;6.892;2023-11-19T20:22:35;11.00;100.00
52669;DHT22;74205;52.786;6.892;2023-11-19T20:25:56;11.00;100.00
52669;DHT22;74205;52.786;6.892;2023-11-19T20:29:17;11.00;100.00
52669;DHT22;74205;52.786;6.892;2023-11-19T20:32:37;11.00;100.00
52669;DHT22;74205;52.786;6.892;2023-11-19T20:35:58;11.10;100.00
52669;DHT22;74205;52.786;6.892;2023-11-19T20:39:18;11.10;100.00
52669;DHT22;74205;52.786;6.892;2023-11-19T20:42:39;11.10;100.00
52669;DHT22;74205;52.786;6.892;2023-11-19T20:46:02;11.10;100.00
52669;DHT22;74205;52.786;6.892;2023-11-19T20:49:24;11.10;100.00
52669;DHT22;74205;52.786;6.892;2023-11-19T20:52:45;11.10;100.00
52669;DHT22;74205;52.786;6.892;2023-11-19T20:56:05;11.10;100.00
52669;DHT22;74205;52.786;6.892;2023-11-19T20:59:26;11.10;100.00
52669;DHT22;74205;52.786;6.892;2023-11-19T21:02:47;11.10;100.00
52669;DHT22;74205;52.786;6.892;2023-11-19T21:06:09;11.20;100.00
52669;DHT22;74205;52.786;6.892;2023-11-19T21:09:29;11.10;100.00
52669;DHT22;74205;52.786;6.892;2023-11-19T21:12:50;11.20;100.00
52669;DHT22;74205;52.786;6.892;2023-11-19T21:16:10;11.20;100.00
52669;DHT22;74205;52.786;6.892;2023-11-19T21:19:31;11.20;100.00